KMWO/MWO METAR and TAF weather

Enter ICAO airport designator
Station Type Date Time Source
KMWO METAR 2022/06/27 09:15 UTC NOAA

KMWO 270915Z AUTO 00000KT 10SM CLR 15/14 A3014 RMK AO2 T0147////


Station Type Date Time Source
KMWO Decoded METAR 2022/06/27 09:15 UTC NOAA

Station name not available
Jun 27, 2022 - 05:15 AM EDT / 2022.06.27 0915 UTC
Wind: Calm:0
Visibility: 10 mile(s):0
Sky conditions: clear
Temperature: 59 F (15 C)
Dew Point: 57 F (14 C)
Relative Humidity: 93%
Pressure (altimeter): 30.14 in. Hg (1020 hPa)
ob: KMWO 270915Z AUTO 00000KT 10SM CLR 15/14 A3014 RMK AO2 T0147////
cycle: 9

Station Type Date Time Source
KMWO TAF UTC NOAA

Error!

Example: see airport list